createdAt,value
2023-05-14T00:02:04.043Z,9.20
2023-05-14T00:05:41.613Z,9.60
2023-05-14T00:09:19.927Z,12.90
2023-05-14T00:12:57.074Z,10.90
2023-05-14T00:16:34.668Z,9.80
2023-05-14T00:20:12.773Z,13.40
2023-05-14T00:23:50.028Z,9.00
2023-05-14T00:27:27.945Z,9.70
2023-05-14T00:31:05.294Z,8.00
2023-05-14T00:34:43.082Z,11.70
2023-05-14T00:38:21.159Z,8.30
2023-05-14T00:41:58.380Z,9.00
2023-05-14T00:45:36.138Z,10.80
2023-05-14T00:49:14.681Z,8.60
2023-05-14T00:52:51.352Z,8.80
2023-05-14T00:56:30.031Z,12.00
2023-05-14T01:00:07.730Z,11.50
2023-05-14T01:04:06.166Z,11.30
2023-05-14T01:07:53.311Z,15.20
2023-05-14T01:11:19.449Z,10.20
2023-05-14T01:14:49.310Z,9.90
2023-05-14T01:18:25.385Z,9.70
2023-05-14T01:22:01.492Z,10.50
2023-05-14T01:25:39.749Z,8.00
2023-05-14T01:29:22.757Z,11.60
2023-05-14T01:32:59.037Z,8.70
2023-05-14T01:36:33.748Z,11.20
2023-05-14T01:40:11.739Z,9.90
2023-05-14T01:43:48.113Z,12.50
2023-05-14T01:47:26.018Z,13.40
2023-05-14T01:51:04.246Z,11.20
2023-05-14T01:54:41.257Z,12.50
2023-05-14T01:58:18.858Z,11.40
2023-05-14T02:01:56.330Z,8.10
2023-05-14T02:05:33.926Z,11.30
2023-05-14T02:09:12.102Z,11.30
2023-05-14T02:12:49.734Z,9.70
2023-05-14T02:16:27.105Z,10.70
2023-05-14T02:20:05.038Z,14.10
2023-05-14T02:23:43.134Z,10.20
2023-05-14T02:27:19.952Z,11.30
2023-05-14T02:31:00.197Z,10.40
2023-05-14T02:34:35.798Z,14.90
2023-05-14T02:38:13.366Z,9.90
2023-05-14T02:41:50.623Z,13.20
2023-05-14T02:45:28.469Z,12.00
2023-05-14T02:49:06.499Z,10.90
2023-05-14T02:52:43.780Z,11.60
2023-05-14T02:56:21.412Z,12.30
2023-05-14T02:59:59.089Z,10.40
2023-05-14T03:03:36.797Z,13.20
2023-05-14T03:07:14.465Z,9.70
2023-05-14T03:10:52.011Z,11.60
2023-05-14T03:14:29.757Z,11.00
2023-05-14T03:18:07.541Z,10.00
2023-05-14T03:21:45.141Z,10.20
2023-05-14T03:25:22.582Z,10.70
2023-05-14T03:29:00.526Z,14.30
2023-05-14T03:32:38.317Z,7.50
2023-05-14T03:36:15.997Z,10.90
2023-05-14T03:39:53.284Z,10.30
2023-05-14T03:43:31.290Z,8.30
2023-05-14T03:47:08.685Z,9.90
2023-05-14T03:50:46.617Z,10.90
2023-05-14T03:54:23.911Z,10.10
2023-05-14T03:58:02.740Z,9.10
2023-05-14T04:01:39.216Z,9.10
2023-05-14T04:05:17.347Z,8.00
2023-05-14T04:08:54.890Z,14.30
2023-05-14T04:12:32.980Z,8.10
2023-05-14T04:16:10.431Z,11.30
2023-05-14T04:19:48.183Z,9.80
2023-05-14T04:23:25.774Z,10.60
2023-05-14T04:27:04.461Z,13.60
2023-05-14T04:30:40.747Z,12.50
2023-05-14T04:34:20.860Z,10.50
2023-05-14T04:37:56.088Z,11.40
2023-05-14T04:41:33.948Z,10.40
2023-05-14T04:45:13.626Z,9.80
2023-05-14T04:48:50.522Z,11.30
2023-05-14T04:52:26.997Z,10.10
2023-05-14T04:56:05.092Z,9.60
2023-05-14T04:59:42.518Z,11.30
2023-05-14T05:03:20.201Z,13.40
2023-05-14T05:06:57.693Z,10.30
2023-05-14T05:10:35.145Z,10.60
2023-05-14T05:14:12.915Z,9.20
2023-05-14T05:17:50.651Z,11.90
2023-05-14T05:21:28.277Z,14.40
2023-05-14T05:25:07.239Z,10.90
2023-05-14T05:28:43.515Z,9.40
2023-05-14T05:32:21.579Z,10.50
2023-05-14T05:35:58.911Z,10.50
2023-05-14T05:39:37.007Z,11.50
2023-05-14T05:43:15.717Z,8.30
2023-05-14T05:46:52.109Z,9.40
2023-05-14T05:50:31.865Z,10.70
2023-05-14T05:54:07.425Z,10.30
2023-05-14T05:57:45.131Z,8.70
2023-05-14T06:01:22.825Z,9.50
2023-05-14T06:05:00.546Z,12.10
2023-05-14T06:08:38.228Z,8.40
2023-05-14T06:12:16.224Z,11.50
2023-05-14T06:15:53.552Z,8.30
2023-05-14T06:19:32.250Z,9.10
2023-05-14T06:23:08.814Z,9.60
2023-05-14T06:26:46.464Z,9.00
2023-05-14T06:30:24.802Z,9.40
2023-05-14T06:34:01.896Z,9.20
2023-05-14T06:37:39.845Z,7.50
2023-05-14T06:41:17.709Z,10.80
2023-05-14T06:44:57.171Z,10.90
2023-05-14T06:48:33.012Z,10.80
2023-05-14T06:52:10.523Z,10.80
2023-05-14T06:55:48.885Z,13.00
2023-05-14T06:59:26.529Z,9.60
2023-05-14T07:03:03.492Z,14.20
2023-05-14T07:06:41.110Z,10.90
2023-05-14T07:10:19.104Z,11.70
2023-05-14T07:13:56.627Z,12.60
2023-05-14T07:17:34.307Z,10.00
2023-05-14T07:21:12.302Z,13.30
2023-05-14T07:24:50.242Z,11.90
2023-05-14T07:28:26.997Z,11.10
2023-05-14T07:32:04.978Z,16.70
2023-05-14T07:39:20.470Z,12.70
2023-05-14T07:42:59.239Z,12.70
2023-05-14T07:46:37.442Z,13.70
2023-05-14T07:50:22.619Z,14.90
2023-05-14T07:53:51.566Z,14.20
2023-05-14T07:57:28.356Z,16.50
2023-05-14T08:01:12.413Z,16.10
2023-05-14T08:05:03.966Z,15.80
2023-05-14T08:08:21.968Z,19.70
2023-05-14T08:12:01.539Z,16.40
2023-05-14T08:15:37.537Z,16.80
2023-05-14T08:19:17.438Z,17.90
2023-05-14T08:22:52.182Z,23.40
2023-05-14T08:26:29.742Z,18.90
2023-05-14T08:30:09.377Z,16.80
2023-05-14T08:33:52.046Z,16.70
2023-05-14T08:37:51.502Z,17.80
2023-05-14T08:41:01.073Z,17.70
2023-05-14T08:45:04.173Z,16.80
2023-05-14T08:48:23.114Z,18.40
2023-05-14T08:51:57.729Z,19.50
2023-05-14T08:55:37.792Z,19.10
2023-05-14T08:59:13.897Z,19.00
2023-05-14T09:02:52.095Z,17.30
2023-05-14T09:06:29.138Z,20.80
2023-05-14T09:10:06.961Z,21.50
2023-05-14T09:13:43.680Z,21.80
2023-05-14T09:17:21.450Z,21.00
2023-05-14T09:20:59.128Z,22.10
2023-05-14T09:24:36.532Z,22.80
2023-05-14T09:28:17.950Z,23.90
2023-05-14T09:31:52.635Z,23.40
2023-05-14T09:35:32.732Z,22.30
2023-05-14T09:39:10.618Z,21.90
2023-05-14T09:42:45.711Z,24.10
2023-05-14T09:46:32.562Z,22.50
2023-05-14T09:50:05.630Z,23.00
2023-05-14T09:53:41.643Z,25.10
2023-05-14T09:57:15.566Z,22.10
2023-05-14T10:00:54.749Z,22.20
2023-05-14T10:04:33.506Z,20.20
2023-05-14T10:08:20.065Z,23.50
2023-05-14T10:15:40.935Z,20.40
2023-05-14T10:19:08.122Z,22.70
2023-05-14T10:22:40.392Z,20.10
2023-05-14T10:26:17.903Z,17.70
2023-05-14T10:29:56.576Z,20.80
2023-05-14T10:33:48.366Z,20.20
2023-05-14T10:37:25.775Z,20.40
2023-05-14T10:40:48.512Z,18.00
2023-05-14T10:44:26.124Z,16.20
2023-05-14T10:48:03.490Z,16.30
2023-05-14T10:51:42.551Z,17.00
2023-05-14T10:55:19.104Z,18.20
2023-05-14T10:59:00.173Z,16.50
2023-05-14T11:02:40.601Z,16.80
2023-05-14T11:06:14.703Z,15.90
2023-05-14T11:09:51.546Z,15.20
2023-05-14T11:13:27.708Z,16.00
2023-05-14T11:17:06.822Z,21.20
2023-05-14T11:20:42.569Z,16.90
2023-05-14T11:24:20.089Z,17.30
2023-05-14T11:28:00.921Z,16.50
2023-05-14T11:31:36.039Z,15.00
2023-05-14T11:35:14.250Z,14.70
2023-05-14T11:38:52.501Z,18.50
2023-05-14T11:42:28.638Z,17.30
2023-05-14T11:46:06.504Z,15.00
2023-05-14T11:49:43.974Z,14.20
2023-05-14T11:53:31.141Z,18.90
2023-05-14T11:57:02.532Z,15.00
2023-05-14T12:00:38.248Z,16.60
2023-05-14T12:04:14.772Z,15.30
2023-05-14T12:07:52.650Z,14.80
2023-05-14T12:11:33.115Z,13.40
2023-05-14T12:15:13.516Z,13.20
2023-05-14T12:18:45.249Z,11.10
2023-05-14T12:22:23.585Z,13.50
2023-05-14T12:26:06.706Z,13.30
2023-05-14T12:29:39.128Z,12.10
2023-05-14T12:33:16.585Z,12.60
2023-05-14T12:37:12.506Z,13.80
2023-05-14T12:40:31.281Z,12.50
2023-05-14T12:44:09.866Z,13.70
2023-05-14T12:48:06.246Z,24.20
2023-05-14T12:51:24.435Z,14.30
2023-05-14T12:55:02.046Z,15.30
2023-05-14T12:58:40.149Z,13.70
2023-05-14T13:02:17.997Z,14.30
2023-05-14T13:05:55.447Z,16.50
2023-05-14T13:09:32.832Z,17.30
2023-05-14T13:13:11.998Z,17.10
2023-05-14T13:20:28.326Z,13.90
2023-05-14T13:24:03.490Z,15.50
2023-05-14T13:27:41.303Z,26.30
2023-05-14T13:31:18.502Z,16.90
2023-05-14T13:34:56.989Z,13.20
2023-05-14T13:38:34.800Z,24.40
2023-05-14T13:42:11.786Z,13.80
2023-05-14T13:45:51.516Z,13.00
2023-05-14T13:49:27.578Z,13.90
2023-05-14T13:53:05.047Z,16.70
2023-05-14T13:56:42.666Z,15.40
2023-05-14T14:00:20.165Z,12.70
2023-05-14T14:03:58.503Z,17.20
2023-05-14T14:07:35.699Z,15.70
2023-05-14T14:11:13.987Z,14.20
2023-05-14T14:14:53.085Z,15.20
2023-05-14T14:18:28.559Z,15.80
2023-05-14T14:22:06.390Z,15.00
2023-05-14T14:25:43.961Z,15.90
2023-05-14T14:29:24.146Z,16.80
2023-05-14T14:33:01.487Z,12.90
2023-05-14T14:36:38.283Z,15.50
2023-05-14T14:40:34.008Z,18.40
2023-05-14T14:43:52.592Z,18.40
2023-05-14T14:47:30.497Z,14.80
2023-05-14T14:51:11.642Z,11.60
2023-05-14T14:54:45.162Z,13.80
2023-05-14T14:58:24.009Z,11.30
2023-05-14T15:02:00.684Z,13.50
2023-05-14T15:05:38.494Z,14.10
2023-05-14T15:09:16.363Z,11.40
2023-05-14T15:12:54.675Z,9.90
2023-05-14T15:16:31.825Z,9.40
2023-05-14T15:20:10.616Z,9.30
2023-05-14T15:23:47.042Z,11.30
2023-05-14T15:27:24.626Z,8.80
2023-05-14T15:31:21.712Z,9.20
2023-05-14T15:35:49.367Z,10.60
2023-05-14T15:39:10.474Z,8.30
2023-05-14T15:42:44.257Z,7.40
2023-05-14T15:46:21.844Z,15.10
2023-05-14T15:49:57.995Z,11.90
2023-05-14T15:53:35.503Z,6.00
2023-05-14T15:57:14.025Z,7.60
2023-05-14T16:00:51.346Z,10.00
2023-05-14T16:04:28.710Z,8.70
2023-05-14T16:08:07.057Z,7.30
2023-05-14T16:11:43.914Z,8.80
2023-05-14T16:15:21.630Z,7.90
2023-05-14T16:18:59.604Z,7.40
2023-05-14T16:22:37.482Z,8.40
2023-05-14T16:26:14.534Z,8.30
2023-05-14T16:29:52.387Z,9.20
2023-05-14T16:33:29.999Z,7.20
2023-05-14T16:37:08.222Z,6.10
2023-05-14T16:40:45.540Z,10.90
2023-05-14T16:44:23.195Z,6.20
2023-05-14T16:48:01.567Z,9.50
2023-05-14T16:51:43.165Z,8.50
2023-05-14T16:55:16.606Z,6.80
2023-05-14T16:58:54.038Z,8.60
2023-05-14T17:02:33.268Z,8.90
2023-05-14T17:06:10.259Z,9.30
2023-05-14T17:09:46.872Z,6.70
2023-05-14T17:13:24.297Z,8.90
2023-05-14T17:17:02.456Z,7.90
2023-05-14T17:20:40.014Z,6.10
2023-05-14T17:24:17.221Z,7.60
2023-05-14T17:27:55.065Z,8.60
2023-05-14T17:31:32.849Z,9.60
2023-05-14T17:35:11.844Z,9.40
2023-05-14T17:38:48.485Z,4.00
2023-05-14T17:42:25.932Z,7.30
2023-05-14T17:46:03.993Z,5.20
2023-05-14T17:49:40.984Z,6.80
2023-05-14T17:53:19.132Z,6.20
2023-05-14T17:56:56.864Z,5.20
2023-05-14T18:00:34.683Z,7.40
2023-05-14T18:04:12.314Z,7.30
2023-05-14T18:07:49.542Z,6.30
2023-05-14T18:11:46.523Z,7.10
2023-05-14T18:15:05.135Z,7.20
2023-05-14T18:18:42.845Z,10.10
2023-05-14T18:22:21.751Z,11.20
2023-05-14T18:25:58.093Z,5.80
2023-05-14T18:29:35.452Z,7.20
2023-05-14T18:33:13.226Z,8.60
2023-05-14T18:36:51.125Z,8.40
2023-05-14T18:40:28.887Z,9.20
2023-05-14T18:44:06.404Z,10.00
2023-05-14T18:47:43.981Z,7.10
2023-05-14T18:51:21.661Z,7.80
2023-05-14T18:54:59.614Z,10.00
2023-05-14T18:58:37.093Z,6.70
2023-05-14T19:02:15.265Z,10.70
2023-05-14T19:05:53.935Z,8.50
2023-05-14T19:09:30.317Z,8.20
2023-05-14T19:13:07.918Z,8.60
2023-05-14T19:16:45.149Z,8.00
2023-05-14T19:20:23.181Z,10.10
2023-05-14T19:24:00.543Z,8.60
2023-05-14T19:27:38.942Z,11.30
2023-05-14T19:31:16.253Z,10.50
2023-05-14T19:34:53.717Z,9.50
2023-05-14T19:38:31.598Z,9.00
2023-05-14T19:42:09.198Z,9.10
2023-05-14T19:45:47.056Z,7.90
2023-05-14T19:49:24.454Z,8.40
2023-05-14T19:53:02.227Z,8.80
2023-05-14T19:56:40.552Z,10.30
2023-05-14T20:00:17.713Z,6.60
2023-05-14T20:03:55.258Z,8.20
2023-05-14T20:07:54.146Z,8.10
2023-05-14T20:11:10.192Z,7.10
2023-05-14T20:14:48.315Z,32.10
2023-05-14T20:18:26.111Z,11.80
2023-05-14T20:22:03.946Z,11.30
2023-05-14T20:25:41.660Z,7.60
2023-05-14T20:29:18.646Z,12.00
2023-05-14T20:32:56.795Z,8.60
2023-05-14T20:36:34.735Z,10.20
2023-05-14T20:40:14.485Z,8.10
2023-05-14T20:43:49.558Z,7.40
2023-05-14T20:47:30.552Z,8.40
2023-05-14T20:51:06.799Z,8.60
2023-05-14T20:54:43.223Z,9.20
2023-05-14T20:58:20.999Z,9.20
2023-05-14T21:01:58.537Z,7.40
2023-05-14T21:05:35.416Z,11.90
2023-05-14T21:09:13.499Z,9.80
2023-05-14T21:12:51.758Z,11.80
2023-05-14T21:16:28.566Z,9.30
2023-05-14T21:20:07.061Z,11.00
2023-05-14T21:24:02.963Z,10.90
2023-05-14T21:27:40.290Z,14.10
2023-05-14T21:30:59.375Z,8.30
2023-05-14T21:34:36.735Z,8.90
2023-05-14T21:38:15.040Z,8.10
2023-05-14T21:41:52.193Z,11.10
2023-05-14T21:45:29.944Z,12.30
2023-05-14T21:49:07.513Z,10.40
2023-05-14T21:52:45.560Z,9.00
2023-05-14T21:56:22.973Z,8.90
2023-05-14T22:00:00.961Z,8.30
2023-05-14T22:03:38.399Z,10.40
2023-05-14T22:07:16.330Z,10.80
2023-05-14T22:10:53.671Z,9.60
2023-05-14T22:14:31.595Z,13.00
2023-05-14T22:18:08.987Z,13.10
2023-05-14T22:21:47.042Z,10.90
2023-05-14T22:25:24.427Z,10.40
2023-05-14T22:29:02.198Z,8.50
2023-05-14T22:32:39.940Z,8.80
2023-05-14T22:36:17.618Z,8.30
2023-05-14T22:39:54.924Z,10.30
2023-05-14T22:43:32.972Z,9.40
2023-05-14T22:47:10.735Z,9.50
2023-05-14T22:50:47.980Z,8.60
2023-05-14T22:54:25.543Z,9.70
2023-05-14T22:58:04.082Z,11.30
2023-05-14T23:01:41.163Z,11.00
2023-05-14T23:05:18.720Z,10.10
2023-05-14T23:08:56.397Z,13.10
2023-05-14T23:12:34.184Z,18.10
2023-05-14T23:16:11.727Z,17.60
2023-05-14T23:19:49.589Z,13.00
2023-05-14T23:23:26.996Z,15.20
2023-05-14T23:27:05.366Z,12.50
2023-05-14T23:30:42.537Z,11.10
2023-05-14T23:34:22.180Z,14.00
2023-05-14T23:37:57.722Z,12.60
2023-05-14T23:41:35.645Z,13.30
2023-05-14T23:45:13.875Z,16.40
2023-05-14T23:48:52.371Z,15.90
2023-05-14T23:52:28.678Z,15.40
2023-05-14T23:56:06.482Z,14.50
2023-05-14T23:59:46.257Z,16.00
